createdAt,value
2017-07-23T00:00:14.609Z,11.37
2017-07-23T00:02:41.435Z,10.10
2017-07-23T00:05:08.277Z,9.70
2017-07-23T00:07:35.892Z,9.63
2017-07-23T00:10:02.753Z,10.27
2017-07-23T00:12:29.569Z,9.27
2017-07-23T00:14:56.434Z,9.43
2017-07-23T00:17:24.117Z,8.60
2017-07-23T00:19:50.959Z,9.27
2017-07-23T00:22:18.563Z,7.70
2017-07-23T00:24:46.227Z,8.80
2017-07-23T00:27:13.034Z,7.50
2017-07-23T00:29:39.952Z,7.33
2017-07-23T00:32:06.764Z,8.03
2017-07-23T00:34:33.652Z,7.47
2017-07-23T00:37:00.539Z,7.10
2017-07-23T00:39:29.583Z,6.90
2017-07-23T00:41:56.983Z,6.23
2017-07-23T00:44:24.803Z,5.57
2017-07-23T00:46:51.683Z,5.20
2017-07-23T00:49:18.568Z,5.80
2017-07-23T00:51:45.427Z,5.40
2017-07-23T00:54:12.275Z,5.43
2017-07-23T00:56:39.870Z,5.23
2017-07-23T00:59:06.759Z,4.70
2017-07-23T01:01:33.570Z,5.07
2017-07-23T01:04:00.503Z,5.90
2017-07-23T01:06:28.242Z,5.47
2017-07-23T01:08:55.078Z,5.30
2017-07-23T01:11:21.939Z,5.20
2017-07-23T01:13:48.827Z,5.67
2017-07-23T01:16:15.671Z,5.77
2017-07-23T01:18:42.516Z,5.40
2017-07-23T01:21:09.498Z,5.47
2017-07-23T01:23:36.323Z,5.97
2017-07-23T01:26:03.170Z,5.73
2017-07-23T01:28:30.861Z,5.60
2017-07-23T01:30:57.706Z,5.73
2017-07-23T01:33:24.522Z,5.87
2017-07-23T01:35:52.116Z,5.83
2017-07-23T01:38:19.523Z,5.50
2017-07-23T01:40:46.382Z,5.50
2017-07-23T01:43:13.244Z,5.50
2017-07-23T01:45:41.023Z,5.30
2017-07-23T01:48:07.860Z,5.30
2017-07-23T01:50:35.827Z,5.33
2017-07-23T01:53:02.684Z,5.23
2017-07-23T01:55:29.691Z,4.77
2017-07-23T01:57:56.551Z,4.73
2017-07-23T02:00:23.491Z,4.80
2017-07-23T02:02:50.300Z,4.80
2017-07-23T02:05:17.156Z,5.23
2017-07-23T02:07:43.967Z,5.10
2017-07-23T02:10:10.775Z,5.10
2017-07-23T02:12:37.683Z,5.50
2017-07-23T02:15:04.488Z,5.10
2017-07-23T02:17:31.475Z,4.67
2017-07-23T02:19:58.351Z,4.67
2017-07-23T02:22:25.258Z,4.60
2017-07-23T02:24:52.146Z,5.30
2017-07-23T02:27:19.016Z,4.70
2017-07-23T02:29:45.843Z,4.70
2017-07-23T02:32:12.736Z,4.67
2017-07-23T02:34:39.607Z,5.13
2017-07-23T02:37:06.480Z,5.70
2017-07-23T02:39:33.291Z,5.50
2017-07-23T02:42:00.178Z,5.30
2017-07-23T02:44:26.983Z,5.77
2017-07-23T02:46:54.632Z,6.00
2017-07-23T02:49:21.547Z,5.57
2017-07-23T02:51:48.359Z,6.23
2017-07-23T02:54:15.424Z,6.70
2017-07-23T02:56:42.335Z,5.90
2017-07-23T02:59:09.233Z,6.20
2017-07-23T03:01:36.627Z,6.43
2017-07-23T03:04:03.506Z,5.70
2017-07-23T03:06:30.323Z,6.63
2017-07-23T03:08:57.212Z,5.83
2017-07-23T03:11:24.071Z,5.77
2017-07-23T03:13:50.944Z,6.70
2017-07-23T03:16:18.144Z,6.27
2017-07-23T03:18:45.048Z,6.30
2017-07-23T03:21:11.858Z,5.73
2017-07-23T03:23:38.732Z,6.23
2017-07-23T03:26:05.596Z,6.20
2017-07-23T03:28:32.463Z,6.17
2017-07-23T03:30:59.345Z,6.20
2017-07-23T03:33:26.280Z,6.10
2017-07-23T03:35:53.191Z,6.50
2017-07-23T03:38:20.028Z,6.27
2017-07-23T03:40:47.911Z,5.90
2017-07-23T03:43:14.731Z,5.77
2017-07-23T03:45:41.559Z,5.87
2017-07-23T03:48:08.440Z,6.20
2017-07-23T03:50:35.603Z,6.00
2017-07-23T03:53:02.410Z,5.70
2017-07-23T03:55:29.291Z,6.70
2017-07-23T03:57:56.120Z,6.43
2017-07-23T04:00:23.000Z,5.60
2017-07-23T04:02:49.842Z,6.10
2017-07-23T04:05:16.716Z,6.83
2017-07-23T04:07:44.383Z,6.10
2017-07-23T04:10:11.263Z,6.03
2017-07-23T04:12:38.099Z,6.10
2017-07-23T04:15:05.022Z,6.37
2017-07-23T04:17:31.874Z,5.50
2017-07-23T04:20:00.060Z,6.03
2017-07-23T04:22:26.895Z,5.53
2017-07-23T04:24:53.807Z,5.83
2017-07-23T04:27:20.647Z,5.70
2017-07-23T04:29:47.536Z,5.70
2017-07-23T04:32:14.407Z,5.83
2017-07-23T04:34:42.312Z,5.80
2017-07-23T04:37:09.127Z,6.00
2017-07-23T04:39:35.990Z,6.13
2017-07-23T04:42:02.801Z,6.00
2017-07-23T04:44:29.684Z,6.50
2017-07-23T04:46:56.532Z,6.00
2017-07-23T04:49:23.408Z,6.87
2017-07-23T04:51:50.306Z,6.00
2017-07-23T04:54:17.151Z,6.13
2017-07-23T04:56:43.992Z,6.30
2017-07-23T04:59:10.822Z,6.87
2017-07-23T05:01:37.729Z,5.80
2017-07-23T05:04:04.543Z,6.23
2017-07-23T05:06:31.465Z,6.13
2017-07-23T05:08:59.224Z,5.93
2017-07-23T05:11:26.183Z,6.13
2017-07-23T05:13:53.850Z,6.40
2017-07-23T05:16:21.391Z,6.03
2017-07-23T05:18:48.688Z,5.93
2017-07-23T05:21:15.508Z,5.70
2017-07-23T05:23:42.363Z,6.60
2017-07-23T05:26:09.233Z,6.53
2017-07-23T05:28:36.042Z,6.57
2017-07-23T05:31:02.889Z,6.80
2017-07-23T05:33:29.694Z,6.07
2017-07-23T05:35:56.509Z,6.00
2017-07-23T05:38:23.379Z,6.97
2017-07-23T05:40:50.219Z,6.20
2017-07-23T05:43:17.224Z,6.80
2017-07-23T05:45:44.070Z,7.10
2017-07-23T05:48:11.772Z,6.10
2017-07-23T05:50:38.942Z,6.60
2017-07-23T05:53:06.379Z,6.73
2017-07-23T05:55:33.269Z,6.50
2017-07-23T05:58:00.111Z,6.20
2017-07-23T06:00:27.003Z,7.37
2017-07-23T06:02:53.885Z,6.03
2017-07-23T06:05:20.700Z,7.00
2017-07-23T06:07:47.614Z,6.27
2017-07-23T06:10:14.478Z,8.20
2017-07-23T06:12:41.290Z,6.17
2017-07-23T06:15:08.135Z,6.90
2017-07-23T06:17:34.978Z,6.17
2017-07-23T06:20:01.860Z,6.73
2017-07-23T06:22:28.776Z,6.10
2017-07-23T06:24:55.603Z,6.60
2017-07-23T06:27:22.485Z,6.80
2017-07-23T06:29:49.433Z,7.43
2017-07-23T06:32:16.985Z,7.17
2017-07-23T06:34:43.851Z,7.00
2017-07-23T06:37:10.711Z,6.47
2017-07-23T06:39:37.556Z,6.83
2017-07-23T06:42:04.415Z,6.93
2017-07-23T06:44:31.266Z,7.10
2017-07-23T06:46:58.107Z,6.80
2017-07-23T06:49:24.992Z,6.77
2017-07-23T06:51:52.892Z,6.13
2017-07-23T06:54:19.735Z,6.20
2017-07-23T06:56:46.591Z,6.80
2017-07-23T06:59:13.499Z,7.03
2017-07-23T07:01:40.343Z,6.70
2017-07-23T07:04:07.164Z,6.90
2017-07-23T07:06:34.089Z,6.97
2017-07-23T07:09:00.899Z,6.80
2017-07-23T07:11:27.745Z,6.60
2017-07-23T07:13:54.629Z,6.80
2017-07-23T07:16:21.439Z,6.77
2017-07-23T07:18:48.421Z,6.53
2017-07-23T07:21:15.271Z,7.33
2017-07-23T07:23:42.078Z,7.00
2017-07-23T07:26:08.915Z,7.03
2017-07-23T07:28:35.796Z,6.90
2017-07-23T07:31:02.604Z,6.80
2017-07-23T07:33:29.461Z,7.60
2017-07-23T07:35:56.303Z,6.80
2017-07-23T07:38:23.176Z,6.93
2017-07-23T07:40:50.090Z,6.83
2017-07-23T07:43:16.970Z,7.17
2017-07-23T07:45:43.782Z,7.60
2017-07-23T07:48:10.590Z,7.40
2017-07-23T07:50:37.513Z,7.77
2017-07-23T07:53:04.361Z,7.17
2017-07-23T07:55:31.167Z,7.43
2017-07-23T07:57:58.043Z,8.10
2017-07-23T08:00:24.859Z,8.13
2017-07-23T08:02:51.673Z,7.47
2017-07-23T08:05:18.544Z,7.20
2017-07-23T08:07:45.403Z,7.50
2017-07-23T08:10:12.640Z,7.37
2017-07-23T08:12:39.662Z,7.60
2017-07-23T08:15:06.491Z,7.80
2017-07-23T08:17:33.308Z,7.23
2017-07-23T08:20:00.150Z,7.57
2017-07-23T08:22:27.134Z,7.80
2017-07-23T08:24:53.971Z,8.00
2017-07-23T08:27:20.826Z,7.93
2017-07-23T08:29:47.645Z,7.20
2017-07-23T08:32:14.483Z,7.77
2017-07-23T08:34:41.355Z,7.83
2017-07-23T08:37:08.250Z,7.20
2017-07-23T08:39:35.059Z,7.60
2017-07-23T08:42:01.941Z,7.47
2017-07-23T08:44:28.822Z,8.70
2017-07-23T08:46:55.650Z,7.60
2017-07-23T08:49:22.511Z,7.80
2017-07-23T08:51:49.351Z,7.90
2017-07-23T08:54:16.230Z,8.20
2017-07-23T08:56:43.092Z,8.17
2017-07-23T08:59:09.934Z,8.53
2017-07-23T09:01:36.753Z,8.20
2017-07-23T09:04:03.754Z,7.90
2017-07-23T09:06:30.575Z,8.57
2017-07-23T09:08:57.421Z,8.60
2017-07-23T09:11:24.381Z,8.10
2017-07-23T09:13:51.256Z,8.07
2017-07-23T09:16:18.063Z,8.53
2017-07-23T09:18:44.955Z,9.23
2017-07-23T09:21:11.831Z,8.30
2017-07-23T09:23:38.652Z,8.40
2017-07-23T09:26:05.506Z,9.13
2017-07-23T09:28:32.354Z,9.87
2017-07-23T09:30:59.207Z,9.10
2017-07-23T09:33:26.170Z,8.70
2017-07-23T09:35:53.047Z,8.47
2017-07-23T09:38:19.858Z,8.70
2017-07-23T09:40:46.789Z,9.73
2017-07-23T09:43:13.634Z,9.20
2017-07-23T09:45:40.487Z,8.90
2017-07-23T09:48:07.404Z,9.27
2017-07-23T09:50:34.251Z,9.53
2017-07-23T09:53:01.061Z,8.90
2017-07-23T09:55:27.910Z,9.13
2017-07-23T09:57:54.731Z,8.60
2017-07-23T10:00:21.539Z,9.43
2017-07-23T10:02:48.480Z,10.37
2017-07-23T10:05:15.298Z,9.50
2017-07-23T10:07:42.139Z,10.00
2017-07-23T10:10:09.120Z,9.73
2017-07-23T10:12:35.964Z,10.10
2017-07-23T10:15:02.792Z,10.47
2017-07-23T10:17:29.680Z,10.57
2017-07-23T10:19:56.543Z,11.13
2017-07-23T10:22:23.403Z,10.00
2017-07-23T10:24:50.467Z,11.20
2017-07-23T10:27:17.347Z,10.60
2017-07-23T10:29:44.186Z,10.47
2017-07-23T10:32:11.079Z,11.00
2017-07-23T10:34:37.899Z,11.00
2017-07-23T10:37:04.780Z,10.90
2017-07-23T10:39:31.662Z,11.90
2017-07-23T10:41:58.511Z,11.20
2017-07-23T10:44:25.329Z,11.33
2017-07-23T10:46:52.187Z,11.70
2017-07-23T10:49:19.089Z,21.60
2017-07-23T10:51:45.932Z,19.23
2017-07-23T10:54:12.849Z,13.10
2017-07-23T10:56:39.696Z,11.93
2017-07-23T10:59:06.519Z,12.73
2017-07-23T11:01:33.452Z,12.13
2017-07-23T11:04:00.269Z,12.73
2017-07-23T11:06:27.160Z,11.50
2017-07-23T11:08:54.080Z,12.77
2017-07-23T11:11:20.895Z,11.90
2017-07-23T11:13:47.756Z,12.23
2017-07-23T11:16:14.709Z,11.47
2017-07-23T11:18:41.551Z,11.50
2017-07-23T11:21:08.370Z,11.30
2017-07-23T11:23:35.393Z,11.87
2017-07-23T11:26:02.675Z,12.77
2017-07-23T11:28:29.511Z,11.80
2017-07-23T11:30:56.386Z,11.30
2017-07-23T11:33:23.215Z,10.47
2017-07-23T11:35:50.095Z,10.70
2017-07-23T11:38:16.999Z,11.23
2017-07-23T11:40:43.895Z,11.00
2017-07-23T11:43:10.894Z,11.47
2017-07-23T11:45:37.832Z,10.30
2017-07-23T11:48:04.686Z,10.73
2017-07-23T11:50:31.518Z,10.73
2017-07-23T11:52:58.408Z,11.23
2017-07-23T11:55:25.491Z,10.40
2017-07-23T11:57:52.468Z,10.33
2017-07-23T12:00:19.388Z,11.23
2017-07-23T12:02:46.243Z,9.80
2017-07-23T12:05:13.129Z,9.30
2017-07-23T12:07:39.982Z,9.90
2017-07-23T12:10:06.798Z,9.33
2017-07-23T12:12:33.683Z,9.10
2017-07-23T12:15:00.593Z,10.40
2017-07-23T12:17:27.415Z,9.57
2017-07-23T12:19:54.299Z,9.53
2017-07-23T12:22:21.187Z,9.97
2017-07-23T12:24:48.088Z,9.40
2017-07-23T12:27:15.071Z,9.70
2017-07-23T12:29:42.063Z,10.20
2017-07-23T12:32:08.936Z,10.20
2017-07-23T12:34:35.857Z,9.50
2017-07-23T12:37:02.727Z,9.67
2017-07-23T12:39:29.612Z,10.37
2017-07-23T12:41:56.450Z,9.83
2017-07-23T12:44:24.244Z,10.40
2017-07-23T12:46:51.063Z,9.57
2017-07-23T12:49:18.061Z,9.77
2017-07-23T12:51:44.964Z,9.43
2017-07-23T12:54:11.974Z,9.10
2017-07-23T12:56:38.873Z,9.83
2017-07-23T12:59:05.756Z,9.80
2017-07-23T13:01:32.650Z,10.00
2017-07-23T13:03:59.566Z,9.90
2017-07-23T13:06:26.457Z,9.93
2017-07-23T13:08:53.358Z,9.80
2017-07-23T13:11:20.261Z,9.10
2017-07-23T13:13:47.188Z,8.47
2017-07-23T13:16:14.007Z,8.80
2017-07-23T13:18:40.820Z,8.87
2017-07-23T13:21:07.739Z,8.80
2017-07-23T13:23:34.575Z,9.30
2017-07-23T13:26:01.395Z,8.90
2017-07-23T13:28:28.372Z,8.67
2017-07-23T13:30:55.220Z,8.50
2017-07-23T13:33:22.068Z,8.97
2017-07-23T13:35:48.955Z,8.70
2017-07-23T13:38:15.818Z,8.10
2017-07-23T13:40:42.720Z,7.83
2017-07-23T13:43:09.590Z,8.10
2017-07-23T13:45:36.489Z,8.43
2017-07-23T13:48:03.359Z,8.30
2017-07-23T13:50:30.250Z,8.30
2017-07-23T13:52:57.148Z,7.20
2017-07-23T13:55:24.029Z,7.20
2017-07-23T13:57:50.914Z,7.70
2017-07-23T14:00:17.743Z,7.70
2017-07-23T14:02:44.599Z,7.93
2017-07-23T14:05:11.535Z,7.20
2017-07-23T14:07:38.426Z,7.30
2017-07-23T14:10:05.279Z,7.20
2017-07-23T14:12:32.151Z,7.70
2017-07-23T14:14:59.004Z,7.47
2017-07-23T14:17:25.831Z,7.50
2017-07-23T14:19:52.742Z,7.83
2017-07-23T14:22:19.649Z,8.00
2017-07-23T14:24:46.533Z,7.50
2017-07-23T14:27:13.419Z,8.10
2017-07-23T14:29:40.253Z,7.40
2017-07-23T14:32:07.074Z,6.90
2017-07-23T14:34:34.088Z,7.27
2017-07-23T14:37:00.904Z,6.97
2017-07-23T14:39:27.735Z,7.10
2017-07-23T14:41:54.647Z,6.50
2017-07-23T14:44:21.471Z,7.33
2017-07-23T14:46:48.299Z,7.37
2017-07-23T14:49:15.166Z,7.10
2017-07-23T14:51:41.975Z,6.80
2017-07-23T14:54:08.819Z,6.63
2017-07-23T14:56:35.726Z,7.20
2017-07-23T14:59:02.549Z,6.40
2017-07-23T15:01:29.371Z,6.03
2017-07-23T15:03:56.301Z,6.10
2017-07-23T15:06:23.115Z,6.10
2017-07-23T15:08:49.930Z,5.80
2017-07-23T15:11:16.826Z,5.37
2017-07-23T15:13:43.655Z,5.33
2017-07-23T15:16:10.495Z,5.30
2017-07-23T15:18:37.471Z,5.23
2017-07-23T15:21:04.294Z,6.10
2017-07-23T15:23:31.176Z,6.47
2017-07-23T15:25:58.086Z,6.53
2017-07-23T15:28:24.963Z,6.10
2017-07-23T15:30:51.851Z,6.80
2017-07-23T15:33:18.967Z,6.40
2017-07-23T15:35:45.829Z,6.80
2017-07-23T15:38:12.712Z,6.30
2017-07-23T15:40:39.675Z,7.10
2017-07-23T15:43:06.582Z,7.17
2017-07-23T15:45:33.530Z,7.30
2017-07-23T15:48:00.431Z,8.10
2017-07-23T15:50:27.243Z,8.37
2017-07-23T15:52:54.108Z,8.03
2017-07-23T15:55:21.007Z,8.40
2017-07-23T15:57:47.891Z,8.10
2017-07-23T16:00:14.715Z,8.10
2017-07-23T16:02:41.880Z,8.00
2017-07-23T16:05:08.736Z,8.57
2017-07-23T16:07:35.617Z,7.50
2017-07-23T16:10:02.576Z,10.67
2017-07-23T16:12:29.432Z,10.23
2017-07-23T16:14:56.349Z,11.10
2017-07-23T16:17:23.554Z,10.00
2017-07-23T16:19:50.442Z,10.23
2017-07-23T16:22:17.259Z,9.97
2017-07-23T16:24:44.228Z,9.87
2017-07-23T16:27:11.178Z,9.23
2017-07-23T16:29:38.223Z,9.90
2017-07-23T16:32:05.179Z,10.70
2017-07-23T16:34:32.111Z,10.30
2017-07-23T16:36:58.955Z,12.67
2017-07-23T16:39:25.852Z,11.97
2017-07-23T16:41:52.741Z,13.17
2017-07-23T16:44:19.737Z,12.40
2017-07-23T16:46:46.687Z,14.13
2017-07-23T16:49:13.527Z,13.00
2017-07-23T16:51:40.359Z,11.50
2017-07-23T16:54:07.247Z,10.83
2017-07-23T16:56:34.070Z,10.10
2017-07-23T16:59:00.918Z,9.23
2017-07-23T17:01:27.780Z,9.20
2017-07-23T17:03:54.671Z,9.00
2017-07-23T17:06:21.499Z,9.50
2017-07-23T17:08:49.350Z,10.37
2017-07-23T17:11:16.240Z,9.10
2017-07-23T17:13:43.074Z,9.43
2017-07-23T17:16:09.947Z,10.70
2017-07-23T17:18:36.815Z,10.43
2017-07-23T17:21:03.664Z,9.20
2017-07-23T17:23:30.567Z,10.40
2017-07-23T17:25:57.390Z,9.53
2017-07-23T17:28:24.288Z,10.33
2017-07-23T17:30:51.222Z,9.90
2017-07-23T17:33:19.296Z,10.10
2017-07-23T17:35:46.143Z,9.00
2017-07-23T17:38:13.024Z,10.13
2017-07-23T17:40:39.853Z,9.40
2017-07-23T17:43:06.753Z,10.13
2017-07-23T17:45:33.710Z,10.03
2017-07-23T17:48:00.541Z,9.83
2017-07-23T17:50:27.438Z,9.50
2017-07-23T17:52:54.334Z,9.13
2017-07-23T17:55:21.225Z,9.57
2017-07-23T18:00:24.471Z,11.03
2017-07-23T18:02:52.011Z,11.20
2017-07-23T18:05:21.721Z,11.43
2017-07-23T18:07:49.332Z,11.13
2017-07-23T18:10:16.906Z,11.70
2017-07-23T18:12:44.529Z,12.33
2017-07-23T18:15:13.922Z,11.10
2017-07-23T18:17:40.833Z,10.70
2017-07-23T18:20:07.664Z,9.73
2017-07-23T18:22:34.609Z,10.90
2017-07-23T18:25:01.464Z,9.37
2017-07-23T18:27:29.955Z,9.80
2017-07-23T18:29:56.850Z,10.50
2017-07-23T18:32:23.744Z,10.80
2017-07-23T18:34:50.582Z,11.00
2017-07-23T18:37:17.499Z,10.50
2017-07-23T18:39:44.383Z,10.90
2017-07-23T18:42:11.356Z,10.63
2017-07-23T18:44:39.201Z,11.67
2017-07-23T18:47:06.073Z,11.60
2017-07-23T18:49:32.941Z,12.70
2017-07-23T18:52:01.096Z,11.80
2017-07-23T18:54:27.931Z,10.60
2017-07-23T18:56:54.962Z,10.87
2017-07-23T18:59:21.875Z,11.27
2017-07-23T19:01:50.004Z,10.70
2017-07-23T19:04:16.896Z,11.07
2017-07-23T19:06:43.819Z,10.43
2017-07-23T19:09:10.670Z,11.37
2017-07-23T19:11:38.347Z,11.80
2017-07-23T19:14:05.324Z,11.23
2017-07-23T19:16:32.262Z,11.47
2017-07-23T19:18:59.135Z,12.20
2017-07-23T19:21:26.834Z,11.00
2017-07-23T19:23:53.678Z,10.20
2017-07-23T19:26:20.576Z,11.13
2017-07-23T19:28:47.507Z,10.73
2017-07-23T19:31:14.367Z,16.87
2017-07-23T19:33:41.263Z,14.30
2017-07-23T19:36:08.172Z,18.03
2017-07-23T19:38:35.060Z,25.60
2017-07-23T19:41:01.904Z,24.40
2017-07-23T19:43:28.872Z,26.97
2017-07-23T19:45:56.271Z,26.53
2017-07-23T19:48:23.135Z,24.13
2017-07-23T19:50:50.416Z,21.23
2017-07-23T19:53:17.350Z,20.87
2017-07-23T19:55:44.296Z,19.07
2017-07-23T19:58:11.208Z,17.00
2017-07-23T20:00:38.040Z,15.23
2017-07-23T20:03:04.871Z,14.90
2017-07-23T20:05:31.996Z,14.77
2017-07-23T20:07:59.719Z,15.00
2017-07-23T20:10:27.079Z,15.87
2017-07-23T20:12:53.960Z,15.03
2017-07-23T20:15:20.786Z,14.30
2017-07-23T20:17:48.484Z,14.27
2017-07-23T20:20:15.336Z,13.47
2017-07-23T20:22:42.849Z,13.73
2017-07-23T20:25:09.668Z,15.10
2017-07-23T20:27:36.525Z,14.63
2017-07-23T20:30:03.343Z,15.23
2017-07-23T20:32:30.444Z,15.50
2017-07-23T20:34:57.343Z,13.60
2017-07-23T20:37:24.195Z,14.40
2017-07-23T20:39:51.023Z,14.03
2017-07-23T20:42:19.097Z,12.93
2017-07-23T20:44:45.914Z,15.20
2017-07-23T20:47:12.804Z,15.60
2017-07-23T20:49:39.699Z,14.07
2017-07-23T20:52:06.537Z,14.03
2017-07-23T20:54:33.383Z,14.17
2017-07-23T20:57:00.300Z,13.83
2017-07-23T20:59:27.123Z,13.07
2017-07-23T21:01:53.938Z,14.33
2017-07-23T21:04:20.808Z,13.13
2017-07-23T21:06:47.689Z,14.60
2017-07-23T21:09:14.516Z,14.10
2017-07-23T21:11:41.388Z,14.23
2017-07-23T21:14:08.202Z,13.40
2017-07-23T21:16:35.135Z,14.30
2017-07-23T21:19:02.022Z,14.77
2017-07-23T21:21:28.904Z,14.70
2017-07-23T21:23:55.721Z,14.10
2017-07-23T21:26:22.625Z,13.57
2017-07-23T21:28:49.512Z,13.90
2017-07-23T21:31:16.362Z,14.17
2017-07-23T21:33:43.304Z,13.97
2017-07-23T21:36:10.192Z,14.30
2017-07-23T21:38:37.002Z,13.80
2017-07-23T21:41:03.871Z,13.93
2017-07-23T21:43:30.694Z,13.37
2017-07-23T21:45:57.535Z,13.07
2017-07-23T21:48:24.532Z,13.10
2017-07-23T21:50:52.152Z,12.20
2017-07-23T21:53:19.816Z,12.10
2017-07-23T21:55:46.686Z,12.90
2017-07-23T21:58:13.539Z,12.37
2017-07-23T22:00:40.432Z,12.67
2017-07-23T22:03:07.394Z,12.20
2017-07-23T22:05:34.211Z,13.70
2017-07-23T22:08:01.035Z,12.77
2017-07-23T22:10:27.895Z,13.07
2017-07-23T22:12:55.256Z,12.90
2017-07-23T22:15:22.078Z,13.90
2017-07-23T22:17:48.957Z,13.20
2017-07-23T22:20:15.871Z,13.67
2017-07-23T22:22:42.808Z,13.97
2017-07-23T22:25:09.663Z,12.80
2017-07-23T22:27:36.544Z,12.53
2017-07-23T22:30:03.379Z,12.60
2017-07-23T22:32:30.238Z,12.30
2017-07-23T22:34:57.051Z,12.30
2017-07-23T22:37:23.864Z,11.37
2017-07-23T22:39:50.731Z,13.00
2017-07-23T22:42:17.555Z,13.10
2017-07-23T22:44:44.370Z,12.80
2017-07-23T22:47:11.300Z,13.27
2017-07-23T22:49:38.911Z,13.37
2017-07-23T22:52:05.734Z,12.27
2017-07-23T22:54:32.667Z,12.77
2017-07-23T22:57:01.008Z,13.50
2017-07-23T22:59:27.884Z,12.10
2017-07-23T23:01:54.806Z,12.60
2017-07-23T23:04:21.621Z,12.57
2017-07-23T23:06:48.984Z,13.40
2017-07-23T23:09:15.843Z,13.03
2017-07-23T23:11:44.774Z,12.90
2017-07-23T23:14:11.625Z,12.33
2017-07-23T23:16:38.552Z,12.60
2017-07-23T23:19:05.399Z,12.60
2017-07-23T23:21:32.570Z,12.30
2017-07-23T23:23:59.426Z,13.43
2017-07-23T23:26:26.331Z,13.27
2017-07-23T23:28:53.147Z,12.33
2017-07-23T23:31:20.035Z,12.27
2017-07-23T23:33:46.859Z,12.00
2017-07-23T23:36:13.801Z,12.73
2017-07-23T23:38:40.759Z,12.33
2017-07-23T23:41:07.574Z,12.00
2017-07-23T23:43:34.433Z,12.47
2017-07-23T23:46:02.250Z,12.80
2017-07-23T23:48:29.058Z,12.00
2017-07-23T23:50:55.867Z,12.30
2017-07-23T23:53:22.728Z,12.07
2017-07-23T23:55:49.571Z,11.90
2017-07-23T23:58:16.433Z,11.37
